sensor_id;sensor_type;location;lat;lon;timestamp;P1;P2;P0
59179;PMS7003;44956;52.422;20.818;2023-02-08T00:00:12;36.00;27.33;16.00
59179;PMS7003;44956;52.422;20.818;2023-02-08T00:03:40;33.67;24.67;15.00
59179;PMS7003;44956;52.422;20.818;2023-02-08T00:07:05;32.75;26.50;15.00
59179;PMS7003;44956;52.422;20.818;2023-02-08T00:10:54;37.67;29.33;16.00
59179;PMS7003;44956;52.422;20.818;2023-02-08T00:14:02;33.67;27.67;15.00
59179;PMS7003;44956;52.422;20.818;2023-02-08T05:24:44;35.00;29.00;15.00
59179;PMS7003;44956;52.422;20.818;2023-02-08T05:27:47;35.25;28.25;14.75
59179;PMS7003;44956;52.422;20.818;2023-02-08T05:30:50;31.50;25.00;16.00
59179;PMS7003;44956;52.422;20.818;2023-02-08T05:35:29;31.50;24.00;16.00
59179;PMS7003;44956;52.422;20.818;2023-02-08T05:38:35;31.00;28.25;13.50
59179;PMS7003;44956;52.422;20.818;2023-02-08T05:41:38;32.75;26.25;16.00
59179;PMS7003;44956;52.422;20.818;2023-02-08T05:45:12;33.00;27.50;15.75
59179;PMS7003;44956;52.422;20.818;2023-02-08T05:48:20;34.00;30.00;15.25
59179;PMS7003;44956;52.422;20.818;2023-02-08T10:03:40;76.00;57.25;31.50
59179;PMS7003;44956;52.422;20.818;2023-02-08T10:06:55;70.00;52.75;30.25
59179;PMS7003;44956;52.422;20.818;2023-02-08T10:11:03;69.50;49.50;33.00
59179;PMS7003;44956;52.422;20.818;2023-02-08T11:09:18;64.50;51.75;30.00
59179;PMS7003;44956;52.422;20.818;2023-02-08T11:12:31;62.33;49.00;29.33
59179;PMS7003;44956;52.422;20.818;2023-02-08T11:15:49;67.25;51.75;28.75
59179;PMS7003;44956;52.422;20.818;2023-02-08T11:18:55;60.75;47.25;27.75
59179;PMS7003;44956;52.422;20.818;2023-02-08T11:22:00;65.67;48.67;27.67
59179;PMS7003;44956;52.422;20.818;2023-02-08T11:25:13;65.75;49.50;28.50
59179;PMS7003;44956;52.422;20.818;2023-02-08T11:28:40;66.50;50.00;29.00
59179;PMS7003;44956;52.422;20.818;2023-02-08T11:35:31;69.00;53.50;31.00
59179;PMS7003;44956;52.422;20.818;2023-02-08T11:38:35;57.50;45.75;28.25
59179;PMS7003;44956;52.422;20.818;2023-02-08T11:41:43;63.00;48.00;28.00
59179;PMS7003;44956;52.422;20.818;2023-02-08T11:44:47;66.00;48.67;25.67
59179;PMS7003;44956;52.422;20.818;2023-02-08T11:47:51;60.67;48.33;30.00
59179;PMS7003;44956;52.422;20.818;2023-02-08T11:50:58;67.00;52.67;27.33
59179;PMS7003;44956;52.422;20.818;2023-02-08T11:54:03;54.33;45.00;24.00
59179;PMS7003;44956;52.422;20.818;2023-02-08T12:00:31;60.67;45.67;27.00
59179;PMS7003;44956;52.422;20.818;2023-02-08T12:03:38;49.33;41.33;22.00
59179;PMS7003;44956;52.422;20.818;2023-02-08T12:22:08;28.67;26.33;14.67
59179;PMS7003;44956;52.422;20.818;2023-02-08T12:29:16;26.33;26.33;12.33
59179;PMS7003;44956;52.422;20.818;2023-02-08T12:33:10;32.00;29.00;15.67
59179;PMS7003;44956;52.422;20.818;2023-02-08T12:46:26;54.00;37.00;21.67
59179;PMS7003;44956;52.422;20.818;2023-02-08T12:53:08;58.33;45.00;22.67
59179;PMS7003;44956;52.422;20.818;2023-02-08T12:56:22;43.67;36.67;16.00
59179;PMS7003;44956;52.422;20.818;2023-02-08T12:59:30;47.33;37.67;19.00
59179;PMS7003;44956;52.422;20.818;2023-02-08T13:02:39;41.33;36.33;18.67
59179;PMS7003;44956;52.422;20.818;2023-02-08T13:06:16;38.33;33.67;19.67
59179;PMS7003;44956;52.422;20.818;2023-02-08T13:13:34;25.00;25.00;18.33
59179;PMS7003;44956;52.422;20.818;2023-02-08T13:16:41;28.67;28.00;15.00
59179;PMS7003;44956;52.422;20.818;2023-02-08T13:23:02;27.67;26.33;15.00
59179;PMS7003;44956;52.422;20.818;2023-02-08T13:26:21;28.67;21.00;13.00
59179;PMS7003;44956;52.422;20.818;2023-02-08T13:29:27;31.67;28.67;12.33
59179;PMS7003;44956;52.422;20.818;2023-02-08T13:32:40;30.33;29.33;13.00
59179;PMS7003;44956;52.422;20.818;2023-02-08T13:35:49;25.00;24.00;12.00
59179;PMS7003;44956;52.422;20.818;2023-02-08T13:38:54;30.00;25.00;13.00
59179;PMS7003;44956;52.422;20.818;2023-02-08T13:41:59;22.33;21.00;12.67
59179;PMS7003;44956;52.422;20.818;2023-02-08T13:45:05;24.67;23.33;12.00
59179;PMS7003;44956;52.422;20.818;2023-02-08T13:48:10;29.33;22.00;15.00
59179;PMS7003;44956;52.422;20.818;2023-02-08T13:54:34;21.67;18.00;9.67
59179;PMS7003;44956;52.422;20.818;2023-02-08T13:57:58;21.00;16.00;9.33
59179;PMS7003;44956;52.422;20.818;2023-02-08T14:01:21;15.67;13.67;6.33
59179;PMS7003;44956;52.422;20.818;2023-02-08T14:04:26;18.67;17.33;8.33
59179;PMS7003;44956;52.422;20.818;2023-02-08T14:07:42;19.00;13.00;9.00
59179;PMS7003;44956;52.422;20.818;2023-02-08T14:11:00;15.00;12.33;5.33
59179;PMS7003;44956;52.422;20.818;2023-02-08T14:14:18;12.00;9.00;5.33
59179;PMS7003;44956;52.422;20.818;2023-02-08T14:17:26;17.33;14.67;7.67
59179;PMS7003;44956;52.422;20.818;2023-02-08T14:20:37;9.67;9.67;6.67
59179;PMS7003;44956;52.422;20.818;2023-02-08T14:23:41;8.00;7.00;4.00
59179;PMS7003;44956;52.422;20.818;2023-02-08T14:26:44;12.33;10.67;6.00
59179;PMS7003;44956;52.422;20.818;2023-02-08T14:30:00;10.00;10.00;6.00
59179;PMS7003;44956;52.422;20.818;2023-02-08T14:39:36;12.67;10.67;5.33
59179;PMS7003;44956;52.422;20.818;2023-02-08T14:43:01;16.00;12.00;7.00
59179;PMS7003;44956;52.422;20.818;2023-02-08T14:49:39;9.67;9.67;6.33
59179;PMS7003;44956;52.422;20.818;2023-02-08T14:56:34;9.33;9.33;6.00
59179;PMS7003;44956;52.422;20.818;2023-02-08T15:00:21;10.00;9.00;7.00
59179;PMS7003;44956;52.422;20.818;2023-02-08T15:03:26;7.00;7.00;4.00
59179;PMS7003;44956;52.422;20.818;2023-02-08T15:09:38;11.33;9.00;6.00
59179;PMS7003;44956;52.422;20.818;2023-02-08T15:12:43;7.67;6.67;3.67
59179;PMS7003;44956;52.422;20.818;2023-02-08T15:15:49;13.67;10.00;7.00
59179;PMS7003;44956;52.422;20.818;2023-02-08T15:18:54;11.67;10.67;6.00
59179;PMS7003;44956;52.422;20.818;2023-02-08T15:22:16;9.67;9.67;5.33
59179;PMS7003;44956;52.422;20.818;2023-02-08T15:25:32;9.00;7.00;4.00
59179;PMS7003;44956;52.422;20.818;2023-02-08T15:28:38;9.00;9.00;6.00
59179;PMS7003;44956;52.422;20.818;2023-02-08T15:31:46;15.00;7.67;3.33
59179;PMS7003;44956;52.422;20.818;2023-02-08T15:34:55;9.00;9.00;3.00
59179;PMS7003;44956;52.422;20.818;2023-02-08T15:38:00;15.67;15.00;6.00
59179;PMS7003;44956;52.422;20.818;2023-02-08T15:41:07;7.00;4.67;3.67
59179;PMS7003;44956;52.422;20.818;2023-02-08T15:47:30;13.00;12.67;7.00
59179;PMS7003;44956;52.422;20.818;2023-02-08T15:50:36;12.33;10.00;4.67
59179;PMS7003;44956;52.422;20.818;2023-02-08T15:53:40;6.67;6.67;4.00
59179;PMS7003;44956;52.422;20.818;2023-02-08T15:56:50;12.00;9.67;4.00
59179;PMS7003;44956;52.422;20.818;2023-02-08T15:59:56;6.33;4.00;1.00
59179;PMS7003;44956;52.422;20.818;2023-02-08T16:03:01;7.67;6.00;1.00
59179;PMS7003;44956;52.422;20.818;2023-02-08T16:06:09;13.00;10.67;4.67
59179;PMS7003;44956;52.422;20.818;2023-02-08T16:09:15;17.33;8.33;4.00
59179;PMS7003;44956;52.422;20.818;2023-02-08T16:12:22;10.00;9.00;4.00
59179;PMS7003;44956;52.422;20.818;2023-02-08T16:18:56;7.67;6.67;4.00
59179;PMS7003;44956;52.422;20.818;2023-02-08T16:22:34;7.00;7.00;5.33
59179;PMS7003;44956;52.422;20.818;2023-02-08T16:25:36;12.00;12.00;6.00
59179;PMS7003;44956;52.422;20.818;2023-02-08T16:28:51;10.75;9.00;4.00
59179;PMS7003;44956;52.422;20.818;2023-02-08T16:32:19;11.00;10.00;5.50
59179;PMS7003;44956;52.422;20.818;2023-02-08T16:35:31;11.50;6.75;4.00
59179;PMS7003;44956;52.422;20.818;2023-02-08T16:38:34;16.50;10.50;6.00
59179;PMS7003;44956;52.422;20.818;2023-02-08T16:45:16;8.50;7.00;4.00
59179;PMS7003;44956;52.422;20.818;2023-02-08T16:49:06;7.00;6.50;4.00
59179;PMS7003;44956;52.422;20.818;2023-02-08T16:51:57;16.50;10.00;5.50
59179;PMS7003;44956;52.422;20.818;2023-02-08T16:55:00;10.00;9.00;4.00
59179;PMS7003;44956;52.422;20.818;2023-02-08T16:58:04;15.25;7.00;4.00
59179;PMS7003;44956;52.422;20.818;2023-02-08T17:01:10;14.50;11.00;5.00
59179;PMS7003;44956;52.422;20.818;2023-02-08T17:04:15;8.00;8.00;4.00
59179;PMS7003;44956;52.422;20.818;2023-02-08T17:07:19;10.00;7.00;4.00
59179;PMS7003;44956;52.422;20.818;2023-02-08T17:10:29;9.50;9.25;4.00
59179;PMS7003;44956;52.422;20.818;2023-02-08T17:13:34;17.00;12.75;6.00
59179;PMS7003;44956;52.422;20.818;2023-02-08T17:16:38;12.75;11.50;5.75
59179;PMS7003;44956;52.422;20.818;2023-02-08T17:19:42;12.75;10.50;6.00
59179;PMS7003;44956;52.422;20.818;2023-02-08T17:22:45;13.25;10.00;6.25
59179;PMS7003;44956;52.422;20.818;2023-02-08T17:25:48;15.25;11.50;4.50
59179;PMS7003;44956;52.422;20.818;2023-02-08T17:28:52;11.00;8.50;5.50
59179;PMS7003;44956;52.422;20.818;2023-02-08T17:31:59;11.25;10.50;6.00
59179;PMS7003;44956;52.422;20.818;2023-02-08T17:35:04;11.50;7.00;4.00
59179;PMS7003;44956;52.422;20.818;2023-02-08T17:38:08;13.25;9.00;6.00
59179;PMS7003;44956;52.422;20.818;2023-02-08T17:41:16;12.25;10.00;6.00
59179;PMS7003;44956;52.422;20.818;2023-02-08T17:44:21;12.50;12.50;6.00
59179;PMS7003;44956;52.422;20.818;2023-02-08T17:47:24;17.50;13.00;7.00
59179;PMS7003;44956;52.422;20.818;2023-02-08T17:50:28;21.00;15.50;9.00
59179;PMS7003;44956;52.422;20.818;2023-02-08T17:53:32;14.25;9.50;6.00
59179;PMS7003;44956;52.422;20.818;2023-02-08T17:56:39;18.75;15.50;7.00
59179;PMS7003;44956;52.422;20.818;2023-02-08T17:59:44;12.75;12.75;6.75
59179;PMS7003;44956;52.422;20.818;2023-02-08T18:02:51;18.00;13.00;8.50
59179;PMS7003;44956;52.422;20.818;2023-02-08T18:05:57;19.00;14.00;7.00
59179;PMS7003;44956;52.422;20.818;2023-02-08T18:09:01;14.00;13.00;6.00
59179;PMS7003;44956;52.422;20.818;2023-02-08T18:12:05;18.00;16.50;9.50
59179;PMS7003;44956;52.422;20.818;2023-02-08T18:15:11;20.00;16.00;10.50
59179;PMS7003;44956;52.422;20.818;2023-02-08T18:18:17;18.75;15.50;9.00
59179;PMS7003;44956;52.422;20.818;2023-02-08T18:21:22;16.25;15.25;6.50
59179;PMS7003;44956;52.422;20.818;2023-02-08T18:24:29;15.25;13.50;7.00
59179;PMS7003;44956;52.422;20.818;2023-02-08T18:27:35;15.50;13.25;8.00
59179;PMS7003;44956;52.422;20.818;2023-02-08T18:30:38;16.25;14.50;9.00
59179;PMS7003;44956;52.422;20.818;2023-02-08T18:33:45;20.25;13.50;9.00
59179;PMS7003;44956;52.422;20.818;2023-02-08T18:36:49;24.50;19.25;10.00
59179;PMS7003;44956;52.422;20.818;2023-02-08T18:39:58;25.00;21.75;10.50
59179;PMS7003;44956;52.422;20.818;2023-02-08T18:43:03;16.50;16.00;9.00
59179;PMS7003;44956;52.422;20.818;2023-02-08T18:46:09;18.50;15.75;10.00
59179;PMS7003;44956;52.422;20.818;2023-02-08T18:49:15;24.50;19.50;11.50
59179;PMS7003;44956;52.422;20.818;2023-02-08T18:52:20;35.25;23.00;12.50
59179;PMS7003;44956;52.422;20.818;2023-02-08T18:55:26;36.00;26.00;12.25
59179;PMS7003;44956;52.422;20.818;2023-02-08T18:58:31;24.00;21.25;12.00
59179;PMS7003;44956;52.422;20.818;2023-02-08T19:01:37;22.25;18.00;11.50
59179;PMS7003;44956;52.422;20.818;2023-02-08T19:04:42;23.00;17.00;9.75
59179;PMS7003;44956;52.422;20.818;2023-02-08T19:07:48;23.00;20.50;12.00
59179;PMS7003;44956;52.422;20.818;2023-02-08T19:10:52;25.50;23.50;13.00
59179;PMS7003;44956;52.422;20.818;2023-02-08T19:13:56;29.50;23.75;13.00
59179;PMS7003;44956;52.422;20.818;2023-02-08T19:17:02;18.75;18.75;12.25
59179;PMS7003;44956;52.422;20.818;2023-02-08T19:20:07;30.25;24.25;13.50
59179;PMS7003;44956;52.422;20.818;2023-02-08T19:23:12;27.00;20.75;13.50
59179;PMS7003;44956;52.422;20.818;2023-02-08T19:26:20;23.50;21.00;12.75
59179;PMS7003;44956;52.422;20.818;2023-02-08T19:29:29;42.25;29.50;15.25
59179;PMS7003;44956;52.422;20.818;2023-02-08T19:32:35;41.25;27.75;18.00
59179;PMS7003;44956;52.422;20.818;2023-02-08T19:35:40;30.50;26.50;15.00
59179;PMS7003;44956;52.422;20.818;2023-02-08T19:38:45;34.75;24.00;13.50
59179;PMS7003;44956;52.422;20.818;2023-02-08T19:41:54;32.25;23.75;15.00
59179;PMS7003;44956;52.422;20.818;2023-02-08T19:45:00;32.50;27.75;12.25
59179;PMS7003;44956;52.422;20.818;2023-02-08T19:48:05;40.50;33.00;18.75
59179;PMS7003;44956;52.422;20.818;2023-02-08T19:51:09;33.25;29.50;15.00
59179;PMS7003;44956;52.422;20.818;2023-02-08T19:54:18;29.50;25.00;14.50
59179;PMS7003;44956;52.422;20.818;2023-02-08T19:57:22;36.50;29.00;18.00
59179;PMS7003;44956;52.422;20.818;2023-02-08T20:00:32;43.00;28.50;16.00
59179;PMS7003;44956;52.422;20.818;2023-02-08T20:03:36;32.50;25.50;17.00
59179;PMS7003;44956;52.422;20.818;2023-02-08T20:06:42;32.75;29.00;15.75
59179;PMS7003;44956;52.422;20.818;2023-02-08T20:09:47;32.25;26.75;14.50
59179;PMS7003;44956;52.422;20.818;2023-02-08T20:12:53;38.75;33.25;18.25
59179;PMS7003;44956;52.422;20.818;2023-02-08T20:15:57;37.25;30.50;15.50
59179;PMS7003;44956;52.422;20.818;2023-02-08T20:19:05;30.00;27.00;15.50
59179;PMS7003;44956;52.422;20.818;2023-02-08T20:22:09;40.25;35.25;16.00
59179;PMS7003;44956;52.422;20.818;2023-02-08T20:25:14;38.75;25.00;16.00
59179;PMS7003;44956;52.422;20.818;2023-02-08T20:28:20;42.50;33.75;19.00
59179;PMS7003;44956;52.422;20.818;2023-02-08T20:31:29;41.25;31.25;17.75
59179;PMS7003;44956;52.422;20.818;2023-02-08T20:34:38;52.00;34.25;16.00
59179;PMS7003;44956;52.422;20.818;2023-02-08T20:38:00;37.25;32.00;18.75
59179;PMS7003;44956;52.422;20.818;2023-02-08T20:41:05;38.50;31.00;16.50
59179;PMS7003;44956;52.422;20.818;2023-02-08T20:44:14;46.50;41.50;22.00
59179;PMS7003;44956;52.422;20.818;2023-02-08T20:47:19;41.75;32.50;19.50
59179;PMS7003;44956;52.422;20.818;2023-02-08T20:50:24;40.00;37.75;24.25
59179;PMS7003;44956;52.422;20.818;2023-02-08T20:53:29;42.75;33.50;15.00
59179;PMS7003;44956;52.422;20.818;2023-02-08T20:56:35;42.50;31.75;19.00
59179;PMS7003;44956;52.422;20.818;2023-02-08T20:59:43;44.50;32.00;17.50
59179;PMS7003;44956;52.422;20.818;2023-02-08T21:02:48;53.75;43.25;24.75
59179;PMS7003;44956;52.422;20.818;2023-02-08T21:05:53;56.50;45.75;27.50
59179;PMS7003;44956;52.422;20.818;2023-02-08T21:09:04;42.25;41.00;23.50
59179;PMS7003;44956;52.422;20.818;2023-02-08T21:12:09;55.75;42.50;22.75
59179;PMS7003;44956;52.422;20.818;2023-02-08T21:15:17;54.75;44.50;25.25
59179;PMS7003;44956;52.422;20.818;2023-02-08T21:18:20;73.50;49.00;27.75
59179;PMS7003;44956;52.422;20.818;2023-02-08T21:21:24;53.50;47.50;28.00
59179;PMS7003;44956;52.422;20.818;2023-02-08T21:24:28;65.25;46.75;30.50
59179;PMS7003;44956;52.422;20.818;2023-02-08T21:27:32;66.75;44.50;27.00
59179;PMS7003;44956;52.422;20.818;2023-02-08T21:30:36;57.75;44.00;23.50
59179;PMS7003;44956;52.422;20.818;2023-02-08T21:33:41;61.75;48.50;26.00
59179;PMS7003;44956;52.422;20.818;2023-02-08T21:36:44;52.25;45.00;26.50
59179;PMS7003;44956;52.422;20.818;2023-02-08T21:39:51;59.25;48.50;30.50
59179;PMS7003;44956;52.422;20.818;2023-02-08T21:42:53;66.50;52.50;28.00
59179;PMS7003;44956;52.422;20.818;2023-02-08T21:46:00;67.00;48.50;23.25
59179;PMS7003;44956;52.422;20.818;2023-02-08T21:49:04;23.00;14.00;0.00
59179;PMS7003;44956;52.422;20.818;2023-02-08T21:52:25;78.50;57.25;33.50
59179;PMS7003;44956;52.422;20.818;2023-02-08T21:55:46;65.75;51.25;30.00
59179;PMS7003;44956;52.422;20.818;2023-02-08T21:58:49;57.25;33.50;7.00
59179;PMS7003;44956;52.422;20.818;2023-02-08T22:01:51;70.50;52.00;30.00
59179;PMS7003;44956;52.422;20.818;2023-02-08T22:04:56;60.00;45.25;26.25
59179;PMS7003;44956;52.422;20.818;2023-02-08T22:07:59;61.25;48.00;27.25
59179;PMS7003;44956;52.422;20.818;2023-02-08T22:11:02;49.00;40.25;20.00
59179;PMS7003;44956;52.422;20.818;2023-02-08T22:14:05;64.25;51.75;30.00
59179;PMS7003;44956;52.422;20.818;2023-02-08T22:17:09;70.25;51.25;30.00
59179;PMS7003;44956;52.422;20.818;2023-02-08T22:20:12;60.75;49.00;29.50
59179;PMS7003;44956;52.422;20.818;2023-02-08T22:23:16;62.00;49.00;31.00
59179;PMS7003;44956;52.422;20.818;2023-02-08T22:26:18;61.00;48.75;30.00
59179;PMS7003;44956;52.422;20.818;2023-02-08T22:29:21;80.00;52.25;30.25
59179;PMS7003;44956;52.422;20.818;2023-02-08T22:32:24;78.00;55.50;34.00
59179;PMS7003;44956;52.422;20.818;2023-02-08T22:35:27;78.75;59.00;34.00
59179;PMS7003;44956;52.422;20.818;2023-02-08T22:38:30;75.00;56.50;34.00
59179;PMS7003;44956;52.422;20.818;2023-02-08T22:41:33;78.50;56.50;33.00
59179;PMS7003;44956;52.422;20.818;2023-02-08T22:44:36;76.25;55.50;33.00
59179;PMS7003;44956;52.422;20.818;2023-02-08T22:47:39;79.00;57.50;34.00
59179;PMS7003;44956;52.422;20.818;2023-02-08T22:50:42;70.00;51.00;33.00
59179;PMS7003;44956;52.422;20.818;2023-02-08T22:53:46;80.75;57.00;33.00
59179;PMS7003;44956;52.422;20.818;2023-02-08T22:56:48;79.50;58.00;35.00
59179;PMS7003;44956;52.422;20.818;2023-02-08T22:59:51;77.00;59.50;35.00
59179;PMS7003;44956;52.422;20.818;2023-02-08T23:02:54;72.00;54.25;34.25
59179;PMS7003;44956;52.422;20.818;2023-02-08T23:05:57;64.25;51.75;30.00
59179;PMS7003;44956;52.422;20.818;2023-02-08T23:08:59;80.00;55.25;33.50
59179;PMS7003;44956;52.422;20.818;2023-02-08T23:12:03;80.25;61.50;33.75
59179;PMS7003;44956;52.422;20.818;2023-02-08T23:15:05;85.25;60.00;33.50
59179;PMS7003;44956;52.422;20.818;2023-02-08T23:18:08;74.75;57.75;34.50
59179;PMS7003;44956;52.422;20.818;2023-02-08T23:21:12;38.00;22.50;0.00
59179;PMS7003;44956;52.422;20.818;2023-02-08T23:24:17;79.75;58.00;34.50
59179;PMS7003;44956;52.422;20.818;2023-02-08T23:27:20;60.75;45.00;16.00
59179;PMS7003;44956;52.422;20.818;2023-02-08T23:30:23;80.25;56.50;34.00
59179;PMS7003;44956;52.422;20.818;2023-02-08T23:33:25;79.75;60.25;33.50
59179;PMS7003;44956;52.422;20.818;2023-02-08T23:36:28;78.00;59.75;36.50
59179;PMS7003;44956;52.422;20.818;2023-02-08T23:39:32;84.00;60.25;33.50
59179;PMS7003;44956;52.422;20.818;2023-02-08T23:42:35;77.50;59.50;36.00
59179;PMS7003;44956;52.422;20.818;2023-02-08T23:45:37;73.50;60.00;36.25
59179;PMS7003;44956;52.422;20.818;2023-02-08T23:48:41;77.25;59.75;34.00
59179;PMS7003;44956;52.422;20.818;2023-02-08T23:51:44;76.00;57.25;33.25
59179;PMS7003;44956;52.422;20.818;2023-02-08T23:54:47;84.75;63.75;36.25
59179;PMS7003;44956;52.422;20.818;2023-02-08T23:57:49;77.00;59.00;34.50
